Time;durP1;ratioP1;P1;durP2;ratioP2;P2;SDS_P1;SDS_P2;PMS_P1;PMS_P2;Temp;Humidity;BMP_temperature;BMP_pressure;BME280_temperature;BME280_humidity;BME280_pressure;Samples;Min_cycle;Max_cycle;Signal;HPM_P1;HPM_P2
2022/04/30 00:04:50;;;;;;;14.17;6.67;;;;;;;7.91;64.33;101465.76;3520113;83;99107;-83
2022/04/30 00:09:52;;;;;;;14.80;6.80;;;;;;;7.91;64.16;101460.86;3507353;83;31604;-83
2022/04/30 00:14:54;;;;;;;16.30;7.00;;;;;;;7.85;64.40;101467.09;3518954;83;98787;-83
2022/04/30 00:19:55;;;;;;;18.10;6.63;;;;;;;7.79;64.39;101457.47;3511976;83;98913;-82
2022/04/30 00:24:56;;;;;;;15.30;6.20;;;;;;;7.76;64.50;101461.45;3529067;83;98716;-83
2022/04/30 00:29:58;;;;;;;19.73;7.87;;;;;;;7.68;64.57;101465.06;3518495;83;98664;-83
2022/04/30 00:34:59;;;;;;;15.60;7.17;;;;;;;7.60;64.66;101466.72;3517274;83;98998;-84
2022/04/30 00:40:02;;;;;;;13.67;5.90;;;;;;;7.57;64.87;101472.84;3472677;84;32828;-83
2022/04/30 00:45:04;;;;;;;16.25;7.40;;;;;;;7.55;65.73;101468.83;3533490;82;98560;-82
2022/04/30 00:50:06;;;;;;;17.95;7.22;;;;;;;7.53;65.55;101467.78;3527916;82;98461;-82
2022/04/30 00:55:08;;;;;;;17.95;7.90;;;;;;;7.50;65.37;101465.73;3523159;82;98730;-83
2022/04/30 01:00:12;;;;;;;20.50;10.30;;;;;;;7.49;65.93;101464.69;3540891;82;99098;-81
2022/04/30 01:05:14;;;;;;;15.83;8.03;;;;;;;7.47;65.78;101460.90;3483593;84;99283;-83
2022/04/30 01:10:15;;;;;;;16.65;8.45;;;;;;;7.45;66.06;101459.63;3448404;84;31654;-83
2022/04/30 01:15:17;;;;;;;17.47;8.27;;;;;;;7.41;66.14;101458.70;3432162;85;98878;-82
2022/04/30 01:20:18;;;;;;;17.07;8.65;;;;;;;7.40;66.28;101451.59;3422642;86;98914;-81
2022/04/30 01:25:20;;;;;;;17.40;8.03;;;;;;;7.35;65.92;101448.48;3460503;84;98693;-83
2022/04/30 01:30:22;;;;;;;17.85;7.75;;;;;;;7.30;66.33;101443.20;3485634;84;98736;-82
2022/04/30 01:40:44;;;;;;;18.57;8.80;;;;;;;7.28;67.46;101448.77;3472689;84;99218;-84
2022/04/30 01:45:45;;;;;;;16.23;8.15;;;;;;;7.26;66.60;101449.67;3461401;84;98515;-84
2022/04/30 01:50:46;;;;;;;16.40;8.28;;;;;;;7.21;67.20;101455.33;3497036;83;98883;-83
2022/04/30 01:55:47;;;;;;;19.37;7.80;;;;;;;7.18;67.56;101449.13;3409814;84;98546;-83
2022/04/30 02:00:49;;;;;;;18.37;8.17;;;;;;;7.15;67.67;101442.38;3454194;84;98732;-84
2022/04/30 02:05:51;;;;;;;15.87;9.00;;;;;;;7.15;68.05;101438.86;3510580;82;98633;-84
2022/04/30 02:10:52;;;;;;;31.87;12.10;;;;;;;7.14;67.91;101435.30;3461974;83;99124;-82
2022/04/30 02:15:53;;;;;;;33.20;16.23;;;;;;;7.13;68.36;101436.44;3440534;83;98384;-82
2022/04/30 02:20:56;;;;;;;31.50;13.70;;;;;;;7.12;68.31;101432.66;3463455;83;99234;-81
2022/04/30 02:26:04;;;;;;;23.87;11.27;;;;;;;7.09;68.06;101430.59;3533521;82;98695;-85
2022/04/30 02:31:00;;;;;;;21.97;11.37;;;;;;;7.08;68.97;101421.57;3493118;83;99344;-85
2022/04/30 02:36:01;;;;;;;23.73;11.87;;;;;;;7.10;68.67;101423.41;3515740;83;99276;-84
2022/04/30 02:41:01;;;;;;;22.63;11.30;;;;;;;7.09;68.82;101414.17;3518270;82;99163;-83
2022/04/30 02:46:02;;;;;;;22.03;10.13;;;;;;;7.07;68.68;101413.68;3492119;84;31639;-85
2022/04/30 02:51:03;;;;;;;23.50;10.97;;;;;;;7.05;68.82;101409.11;3462482;84;99082;-82
2022/04/30 02:56:05;;;;;;;23.67;10.50;;;;;;;7.03;68.83;101408.65;3477011;84;99298;-82
2022/04/30 03:01:06;;;;;;;18.27;10.17;;;;;;;7.00;68.62;101401.90;3462808;84;99256;-84
2022/04/30 03:06:09;;;;;;;20.93;9.70;;;;;;;6.94;68.88;101397.75;3524193;82;99417;-79
2022/04/30 03:11:12;;;;;;;18.73;9.00;;;;;;;6.88;69.24;101385.35;3528188;83;108468;-84
2022/04/30 03:21:44;;;;;;;22.60;9.68;;;;;;;6.78;70.60;101389.84;3467505;84;98836;-82
2022/04/30 03:26:47;;;;;;;20.17;9.80;;;;;;;6.72;70.31;101376.09;3492477;83;98523;-83
2022/04/30 03:31:49;;;;;;;20.32;10.30;;;;;;;6.70;70.45;101378.94;3505288;83;99201;-82
2022/04/30 03:36:50;;;;;;;15.60;8.03;;;;;;;6.67;70.75;101376.84;3500707;84;98867;-82
2022/04/30 03:41:51;;;;;;;21.67;9.37;;;;;;;6.64;70.51;101381.59;3494495;82;99025;-83
2022/04/30 03:46:52;;;;;;;15.17;8.20;;;;;;;6.62;70.64;101377.84;3496996;83;99028;-82
2022/04/30 03:51:54;;;;;;;17.13;8.20;;;;;;;6.61;70.80;101379.53;3518568;82;98775;-83
2022/04/30 03:56:55;;;;;;;17.30;9.23;;;;;;;6.62;71.02;101381.12;3546214;83;98458;-83
2022/04/30 04:01:56;;;;;;;16.40;8.43;;;;;;;6.61;71.21;101377.58;3514119;83;98677;-84
2022/04/30 04:06:58;;;;;;;18.70;8.90;;;;;;;6.63;71.53;101374.52;3487826;84;98784;-82
2022/04/30 04:11:59;;;;;;;18.07;8.43;;;;;;;6.66;72.16;101382.87;3514201;81;98722;-82
2022/04/30 04:22:19;;;;;;;17.50;8.78;;;;;;;6.73;71.78;101383.73;3531461;82;98550;-80
2022/04/30 04:27:20;;;;;;;19.83;8.53;;;;;;;6.78;72.07;101386.30;3513758;83;98537;-84
2022/04/30 04:32:22;;;;;;;20.43;9.25;;;;;;;6.80;72.19;101383.47;3514977;82;99040;-85
2022/04/30 04:37:23;;;;;;;18.57;8.67;;;;;;;6.88;72.00;101381.83;3536755;82;98744;-83
2022/04/30 04:42:23;;;;;;;17.00;9.67;;;;;;;6.93;72.23;101378.91;3544638;82;98663;-82
2022/04/30 04:47:25;;;;;;;16.47;8.60;;;;;;;7.01;72.00;101378.87;3529028;82;98675;-84
2022/04/30 04:52:27;;;;;;;17.27;8.17;;;;;;;7.11;72.11;101388.63;3494159;83;98359;-82
2022/04/30 04:57:28;;;;;;;19.47;9.03;;;;;;;7.18;71.77;101383.42;3501194;83;98547;-83
2022/04/30 05:02:29;;;;;;;18.10;8.13;;;;;;;7.28;72.33;101391.27;3550763;82;98660;-83
2022/04/30 05:07:30;;;;;;;16.03;8.47;;;;;;;7.38;71.83;101390.88;3445520;83;98746;-83
2022/04/30 05:12:31;;;;;;;17.97;8.80;;;;;;;7.49;71.54;101392.09;3399426;85;99110;-83
2022/04/30 05:17:32;;;;;;;18.57;8.83;;;;;;;7.60;71.58;101396.86;3484879;84;99029;-81
2022/04/30 05:22:33;;;;;;;17.47;9.00;;;;;;;7.73;71.36;101403.19;3443912;84;98601;-83
2022/04/30 05:27:34;;;;;;;17.37;8.87;;;;;;;7.88;71.14;101394.37;3488663;84;98367;-81
2022/04/30 05:32:35;;;;;;;18.10;8.93;;;;;;;8.02;71.07;101388.83;3479995;84;98792;-82
2022/04/30 05:37:36;;;;;;;22.27;10.40;;;;;;;8.19;71.01;101387.30;3486541;84;98692;-85
2022/04/30 05:42:37;;;;;;;19.03;9.77;;;;;;;8.37;70.63;101394.26;3480709;83;99217;-81
2022/04/30 05:47:38;;;;;;;20.40;8.83;;;;;;;8.55;70.68;101394.85;3485236;84;98723;-83
2022/04/30 05:52:39;;;;;;;20.87;9.53;;;;;;;8.78;70.25;101397.43;3473122;84;98705;-82
2022/04/30 05:57:41;;;;;;;23.03;10.00;;;;;;;9.00;69.76;101395.62;3478942;84;34929;-83
2022/04/30 06:02:42;;;;;;;21.60;9.77;;;;;;;9.20;69.20;101399.61;3420031;84;99076;-83
2022/04/30 06:07:43;;;;;;;23.50;10.60;;;;;;;9.43;69.23;101396.61;3484815;83;99120;-84
2022/04/30 06:12:44;;;;;;;19.53;9.43;;;;;;;9.61;68.52;101394.41;3548173;82;99177;-82
2022/04/30 06:17:45;;;;;;;17.40;8.77;;;;;;;9.96;68.29;101400.94;3506142;83;99030;-81
2022/04/30 06:22:46;;;;;;;17.43;9.37;;;;;;;9.96;68.29;101400.94;3557223;82;98859;-81
2022/04/30 06:27:47;;;;;;;18.77;9.43;;;;;;;10.26;67.82;101399.48;3465884;83;34857;-82
2022/04/30 06:32:48;;;;;;;17.17;8.83;;;;;;;10.44;66.98;101402.14;3529473;82;98832;-81
2022/04/30 06:37:49;;;;;;;18.83;9.97;;;;;;;10.64;66.49;101400.52;3545741;82;98998;-83
2022/04/30 06:42:50;;;;;;;18.73;8.93;;;;;;;10.87;66.32;101405.66;3549229;82;99319;-81
2022/04/30 06:47:51;;;;;;;19.02;9.50;;;;;;;11.12;65.75;101408.44;3557425;82;99026;-83
2022/04/30 06:58:11;;;;;;;20.92;10.68;;;;;;;11.62;64.19;101409.06;3484175;83;35343;-85
2022/04/30 07:03:12;;;;;;;18.03;9.13;;;;;;;11.87;63.31;101415.90;3467095;83;99253;-85
2022/04/30 07:08:13;;;;;;;18.97;9.87;;;;;;;12.16;63.54;101403.71;3552539;82;99430;-88
2022/04/30 07:13:14;;;;;;;16.53;9.13;;;;;;;12.37;62.62;101404.73;3555930;82;99347;-88
2022/04/30 07:18:15;;;;;;;23.47;11.40;;;;;;;12.73;62.89;101402.26;3557390;82;27212;-83
2022/04/30 07:23:15;;;;;;;20.03;9.57;;;;;;;13.15;61.09;101405.78;3542189;82;99177;-88
2022/04/30 07:28:17;;;;;;;19.30;9.10;;;;;;;13.36;59.67;101406.69;3495718;83;99423;-88
2022/04/30 07:33:18;;;;;;;21.27;10.33;;;;;;;13.60;59.75;101409.83;3535975;82;99007;-87
2022/04/30 07:38:19;;;;;;;22.37;10.57;;;;;;;13.98;59.46;101405.41;3552019;82;99132;-88
2022/04/30 07:43:20;;;;;;;19.07;9.97;;;;;;;14.31;58.09;101404.63;3483663;83;99355;-88
2022/04/30 07:48:21;;;;;;;18.10;9.55;;;;;;;14.44;56.87;101399.06;3551990;82;33209;-89
2022/04/30 07:53:22;;;;;;;18.67;9.85;;;;;;;14.73;56.17;101398.16;3514547;83;99167;-88
2022/04/30 07:58:24;;;;;;;18.80;8.78;;;;;;;15.12;55.99;101403.45;3530890;82;99433;-87
2022/04/30 08:03:25;;;;;;;18.87;10.03;;;;;;;15.32;54.27;101400.05;3493317;83;99042;-87
2022/04/30 08:08:26;;;;;;;21.07;9.43;;;;;;;15.49;53.77;101395.84;3527855;82;99225;-87
2022/04/30 08:13:27;;;;;;;19.48;9.44;;;;;;;15.75;53.40;101395.00;3499978;83;98988;-85
2022/04/30 08:18:28;;;;;;;18.85;9.00;;;;;;;16.17;52.46;101400.76;3519577;83;31942;-85
2022/04/30 08:23:29;;;;;;;19.50;9.50;;;;;;;16.41;50.95;101398.67;3494560;83;98938;-88
2022/04/30 08:28:30;;;;;;;18.65;8.95;;;;;;;16.85;50.59;101396.98;3508255;83;98863;-87
2022/04/30 08:33:31;;;;;;;14.93;7.37;;;;;;;17.16;49.91;101389.25;3499232;83;99075;-85
2022/04/30 08:38:32;;;;;;;27.10;9.68;;;;;;;17.84;49.33;101394.31;3470184;83;99445;-86
2022/04/30 08:43:34;;;;;;;16.12;8.48;;;;;;;18.08;46.85;101390.05;3475984;83;99396;-85
2022/04/30 08:48:37;;;;;;;16.30;7.78;;;;;;;18.23;46.93;101388.80;3484811;84;30654;-86
2022/04/30 08:53:38;;;;;;;14.95;7.72;;;;;;;18.59;44.90;101392.98;3488624;84;98825;-85
2022/04/30 08:58:40;;;;;;;20.55;8.50;;;;;;;18.81;45.55;101397.22;3490644;83;98840;-84
2022/04/30 09:03:41;;;;;;;14.40;7.85;;;;;;;19.19;44.74;101389.14;3490576;83;99213;-83
2022/04/30 09:08:49;;;;;;;15.50;7.25;;;;;;;19.45;44.64;101382.17;3500292;82;99074;-84
2022/04/30 09:13:50;;;;;;;15.88;8.38;;;;;;;19.81;43.66;101384.17;3448328;85;99078;-83
2022/04/30 09:18:55;;;;;;;17.25;7.78;;;;;;;20.03;42.59;101389.69;3440605;84;32551;-85
2022/04/30 09:24:05;;;;;;;13.93;7.30;;;;;;;20.15;42.16;101385.56;3450542;84;98854;-84
2022/04/30 09:29:23;;;;;;;14.40;7.53;;;;;;;19.77;41.03;101382.02;3508546;83;98833;-82
2022/04/30 09:39:44;;;;;;;15.18;6.22;;;;;;;20.02;40.19;101381.12;3418831;84;99054;-84
2022/04/30 09:44:45;;;;;;;17.40;6.50;;;;;;;20.08;39.93;101382.28;3444078;84;99179;-83
2022/04/30 09:55:07;;;;;;;14.43;7.20;;;;;;;20.33;38.49;101378.53;3444653;84;99047;-82
2022/04/30 10:00:11;;;;;;;13.03;6.33;;;;;;;20.19;38.80;101370.95;3491394;83;27649;-85
2022/04/30 10:05:12;;;;;;;18.32;6.92;;;;;;;20.46;38.62;101368.38;3450194;85;98904;-85
2022/04/30 10:10:25;;;;;;;12.75;6.12;;;;;;;20.78;38.15;101366.49;3536170;83;99101;-85
2022/04/30 10:15:42;;;;;;;15.18;6.75;;;;;;;21.10;37.49;101370.38;3489429;84;98377;-85
2022/04/30 10:20:51;;;;;;;14.03;5.97;;;;;;;21.12;36.43;101358.16;3490655;83;99034;-84
2022/04/30 10:25:54;;;;;;;8.90;4.20;;;;;;;21.27;37.22;101359.50;3477161;84;99003;-85
2022/04/30 10:31:06;;;;;;;11.53;5.42;;;;;;;21.35;34.80;101356.73;3537017;82;98821;-84
2022/04/30 10:36:10;;;;;;;9.35;4.67;;;;;;;21.15;35.37;101348.89;3558693;82;98985;-85
2022/04/30 10:41:11;;;;;;;15.30;5.67;;;;;;;21.47;36.29;101342.73;3548951;83;98850;-85
2022/04/30 10:46:23;;;;;;;13.53;4.20;;;;;;;21.73;35.57;101343.23;3555065;82;98957;-84
2022/04/30 10:51:44;;;;;;;11.68;4.83;;;;;;;22.04;35.21;101336.98;3554345;82;99016;-87
2022/04/30 10:56:50;;;;;;;8.58;4.45;;;;;;;22.15;33.47;101329.13;3552228;82;99042;-82
2022/04/30 11:01:51;;;;;;;12.30;4.50;;;;;;;22.39;34.13;101324.97;3542725;82;98898;-85
2022/04/30 11:06:54;;;;;;;11.03;4.42;;;;;;;22.67;33.49;101322.92;3530529;83;32496;-86
2022/04/30 11:11:57;;;;;;;7.20;3.10;;;;;;;23.27;34.07;101315.19;3497412;83;99210;-86
2022/04/30 11:16:57;;;;;;;9.63;3.65;;;;;;;23.22;32.75;101309.33;3539601;83;98694;-84
2022/04/30 11:21:59;;;;;;;10.72;4.45;;;;;;;23.58;31.60;101301.48;3506121;83;99102;-85
2022/04/30 11:27:03;;;;;;;11.75;4.47;;;;;;;23.94;31.96;101289.42;3502088;83;99152;-86
2022/04/30 11:32:06;;;;;;;8.17;3.53;;;;;;;24.31;30.71;101292.26;3501582;83;99049;-85
2022/04/30 11:37:07;;;;;;;8.03;3.85;;;;;;;24.24;32.72;101292.48;3526724;82;27368;-86
2022/04/30 11:42:09;;;;;;;10.85;3.02;;;;;;;24.35;31.04;101280.28;3508023;83;98662;-86
2022/04/30 11:47:10;;;;;;;6.78;3.27;;;;;;;24.17;30.52;101281.47;3525254;83;98797;-87
2022/04/30 11:52:14;;;;;;;7.78;2.70;;;;;;;23.83;29.79;101276.27;3527623;83;99178;-87
2022/04/30 11:57:15;;;;;;;7.28;2.62;;;;;;;23.91;30.32;101277.64;3520255;83;98750;-86
2022/04/30 12:02:16;;;;;;;4.37;2.00;;;;;;;23.18;28.92;101277.13;3522410;83;98723;-84
2022/04/30 12:07:17;;;;;;;3.90;1.85;;;;;;;22.54;26.87;101274.34;3538966;83;98842;-86
2022/04/30 12:12:23;;;;;;;5.20;2.42;;;;;;;22.43;28.85;101262.56;3532498;83;98768;-87
2022/04/30 12:17:32;;;;;;;6.75;2.83;;;;;;;22.33;27.39;101262.20;3530964;83;98719;-85
2022/04/30 12:27:59;;;;;;;7.62;3.33;;;;;;;22.54;28.95;101256.11;3503963;83;99207;-89
2022/04/30 12:33:04;;;;;;;5.87;2.40;;;;;;;22.82;28.46;101250.37;3470264;83;98930;-85
2022/04/30 12:38:14;;;;;;;5.47;2.20;;;;;;;22.88;29.00;101249.41;3464255;83;98880;-86
2022/04/30 12:43:23;;;;;;;4.37;1.90;;;;;;;22.88;28.07;101251.45;3494961;83;98910;-88
2022/04/30 12:48:21;;;;;;;6.40;2.42;;;;;;;22.83;27.75;101235.13;3485726;83;26788;-85
2022/04/30 12:53:22;;;;;;;5.67;1.82;;;;;;;22.46;27.63;101227.27;3487357;83;98864;-85
2022/04/30 12:58:23;;;;;;;4.30;1.52;;;;;;;22.60;28.01;101219.27;3492870;83;98855;-85
2022/04/30 13:03:25;;;;;;;4.53;1.60;;;;;;;22.72;27.79;101213.58;3487167;83;98878;-87
2022/04/30 13:13:31;;;;;;;5.55;2.20;;;;;;;22.78;28.16;101207.59;3491477;83;99171;-86
2022/04/30 13:13:32;;;;;;;6.40;2.35;;;;;;;22.41;27.94;101205.31;3437379;85;99294;-87
2022/04/30 13:18:35;;;;;;;5.85;2.02;;;;;;;22.21;27.94;101208.20;3449399;85;27485;-86
2022/04/30 13:23:36;;;;;;;6.45;2.22;;;;;;;22.43;28.39;101191.62;3502483;84;98664;-86
2022/04/30 13:28:38;;;;;;;6.17;2.08;;;;;;;22.69;28.87;101184.38;3444182;85;98720;-86
2022/04/30 13:33:39;;;;;;;10.38;2.62;;;;;;;23.01;29.36;101177.28;3482048;83;98837;-86
2022/04/30 13:38:42;;;;;;;7.12;2.22;;;;;;;23.15;29.67;101178.27;3454553;84;99042;-85
2022/04/30 13:43:43;;;;;;;8.03;2.85;;;;;;;23.20;29.07;101176.34;3451896;84;99391;-84
2022/04/30 13:48:44;;;;;;;4.70;2.05;;;;;;;22.96;27.66;101174.21;3450057;85;32440;-86
2022/04/30 13:53:45;;;;;;;6.97;2.08;;;;;;;22.73;29.04;101177.25;3417883;84;98791;-87
2022/04/30 13:58:46;;;;;;;5.25;1.82;;;;;;;22.36;28.45;101173.58;3510588;84;98720;-86
2022/04/30 14:03:47;;;;;;;4.75;1.95;;;;;;;21.97;29.19;101168.92;3492888;83;98840;-86
2022/04/30 14:08:48;;;;;;;6.15;1.65;;;;;;;21.86;28.67;101157.80;3452529;84;99652;-86
2022/04/30 14:19:09;;;;;;;5.22;1.77;;;;;;;21.38;29.87;101159.05;3485545;84;25787;-87
2022/04/30 14:24:10;;;;;;;11.45;3.27;;;;;;;21.43;30.96;101155.14;3503847;84;98813;-86
2022/04/30 14:29:12;;;;;;;32.53;16.52;;;;;;;21.52;31.44;101145.52;3512012;83;99349;-87
2022/04/30 14:34:13;;;;;;;11.55;3.50;;;;;;;21.00;30.97;101145.25;3520918;83;99476;-86
2022/04/30 14:39:14;;;;;;;10.80;5.17;;;;;;;20.77;31.86;101148.08;3455781;84;99082;-86
2022/04/30 14:44:16;;;;;;;12.15;4.87;;;;;;;20.75;30.91;101144.30;3478178;84;99053;-87
2022/04/30 14:49:17;;;;;;;9.65;5.05;;;;;;;20.56;31.88;101146.48;3445139;84;98932;-87
2022/04/30 14:54:18;;;;;;;10.95;5.33;;;;;;;20.55;32.99;101152.49;3463986;84;98301;-85
2022/04/30 14:59:19;;;;;;;13.43;4.78;;;;;;;20.49;31.79;101143.78;3513430;83;99418;-86
2022/04/30 15:04:20;;;;;;;13.05;4.62;;;;;;;20.27;32.54;101143.98;3462830;84;99398;-86
2022/04/30 15:09:21;;;;;;;8.73;4.35;;;;;;;20.12;32.62;101139.83;3439207;84;98989;-87
2022/04/30 15:14:22;;;;;;;10.85;5.22;;;;;;;19.97;34.13;101134.87;3437545;85;98960;-87
2022/04/30 15:19:23;;;;;;;10.68;4.08;;;;;;;19.79;33.95;101129.56;3445521;86;99010;-87
2022/04/30 15:24:24;;;;;;;16.87;4.95;;;;;;;19.78;35.20;101126.59;3482721;84;98826;-86
2022/04/30 15:29:28;;;;;;;11.95;4.80;;;;;;;19.76;34.71;101123.44;3486288;84;98877;-86
2022/04/30 15:34:31;;;;;;;10.53;5.33;;;;;;;19.72;35.16;101124.72;3488270;83;99026;-86
2022/04/30 15:39:32;;;;;;;14.55;5.40;;;;;;;19.52;34.88;101129.39;3471429;84;98250;-86
2022/04/30 15:44:33;;;;;;;12.58;5.87;;;;;;;19.47;35.99;101120.89;3484271;84;98966;-86
2022/04/30 15:54:54;;;;;;;13.90;6.08;;;;;;;19.11;35.27;101114.16;3488004;84;98720;-87
2022/04/30 15:59:55;;;;;;;11.55;5.10;;;;;;;18.98;35.54;101120.70;3493451;84;99165;-87
2022/04/30 16:04:56;;;;;;;15.40;5.42;;;;;;;18.87;36.43;101108.30;3483812;84;98829;-86
2022/04/30 16:09:57;;;;;;;12.45;5.15;;;;;;;18.95;36.59;101116.75;3506924;83;99714;-87
2022/04/30 16:14:57;;;;;;;11.12;4.78;;;;;;;19.03;37.21;101116.06;3511126;83;98994;-87
2022/04/30 16:19:58;;;;;;;13.20;5.72;;;;;;;18.95;36.26;101111.77;3523136;83;99002;-87
2022/04/30 16:24:59;;;;;;;14.75;6.10;;;;;;;18.92;35.63;101111.22;3529551;83;99044;-87
2022/04/30 16:30:00;;;;;;;14.18;5.00;;;;;;;18.83;35.81;101114.51;3527564;83;98805;-87
2022/04/30 16:35:01;;;;;;;12.58;5.42;;;;;;;18.79;36.04;101110.16;3534560;83;98863;-85
2022/04/30 16:40:03;;;;;;;12.78;5.17;;;;;;;18.78;35.78;101101.02;3519957;83;99369;-87
2022/04/30 16:45:06;;;;;;;12.33;5.30;;;;;;;18.62;35.48;101102.20;3525496;83;99379;-87
2022/04/30 16:50:08;;;;;;;11.63;5.08;;;;;;;18.48;36.70;101095.36;3529649;83;98942;-86
2022/04/30 17:00:29;;;;;;;14.15;5.37;;;;;;;18.13;37.75;101094.30;3516477;82;98864;-83
2022/04/30 17:05:30;;;;;;;13.03;5.05;;;;;;;17.98;38.30;101091.44;3525834;82;98803;-85
2022/04/30 17:10:31;;;;;;;13.33;6.63;;;;;;;17.74;38.74;101086.07;3534096;82;99250;-86
2022/04/30 17:15:33;;;;;;;14.13;5.53;;;;;;;17.59;39.27;101099.30;3509722;84;99052;-86
2022/04/30 17:20:34;;;;;;;12.37;6.10;;;;;;;17.43;39.57;101103.19;3493507;83;100558;-86
2022/04/30 17:25:35;;;;;;;14.77;5.90;;;;;;;17.22;39.83;101104.66;3509457;83;99201;-86
2022/04/30 17:37:57;;;;;;;11.17;5.03;;;;;;;17.01;40.72;101108.16;3504448;84;99158;-86
2022/04/30 17:40:58;;;;;;;14.53;7.28;;;;;;;16.64;41.87;101111.47;3502849;83;99087;-86
2022/04/30 17:45:59;;;;;;;16.60;7.50;;;;;;;16.42;42.50;101103.56;3509272;84;99114;-87
2022/04/30 17:51:00;;;;;;;13.93;6.97;;;;;;;16.17;43.10;101105.54;3502391;83;99032;-87
2022/04/30 17:56:01;;;;;;;16.33;8.27;;;;;;;15.90;43.72;101102.97;3503883;84;99074;-87
2022/04/30 18:01:02;;;;;;;16.60;7.47;;;;;;;15.70;44.37;101105.95;3503993;83;98744;-86
2022/04/30 18:06:06;;;;;;;15.00;7.67;;;;;;;15.49;44.88;101107.30;3515126;83;98872;-86
2022/04/30 18:11:07;;;;;;;15.75;9.28;;;;;;;15.35;45.46;101113.62;3448731;84;99275;-87
2022/04/30 18:16:08;;;;;;;20.87;12.20;;;;;;;15.29;46.11;101111.58;3429505;86;99713;-87
2022/04/30 18:21:09;;;;;;;24.27;12.95;;;;;;;15.16;45.81;101115.91;3406338;84;99513;-86
2022/04/30 18:26:11;;;;;;;28.15;15.43;;;;;;;14.83;46.29;101111.40;3451679;85;99391;-87
2022/04/30 18:31:11;;;;;;;29.12;16.73;;;;;;;14.53;47.18;101118.36;3446790;84;99330;-86
2022/04/30 18:36:13;;;;;;;30.57;17.90;;;;;;;14.36;47.56;101119.05;3434828;84;99083;-86
2022/04/30 18:41:13;;;;;;;32.47;16.60;;;;;;;14.26;48.00;101129.45;3406907;85;99517;-86
2022/04/30 18:46:15;;;;;;;28.93;16.30;;;;;;;14.08;48.37;101129.89;3402736;84;99191;-86
2022/04/30 18:51:16;;;;;;;33.73;17.40;;;;;;;13.85;48.53;101130.08;3436689;85;99687;-85
2022/04/30 19:01:36;;;;;;;34.20;17.37;;;;;;;13.46;49.53;101137.20;3469083;84;99553;-87
2022/04/30 19:06:37;;;;;;;33.33;16.83;;;;;;;13.37;50.55;101146.98;3422765;84;26014;-86
2022/04/30 19:11:38;;;;;;;31.03;17.10;;;;;;;13.18;50.45;101146.57;3467783;82;99341;-87
2022/04/30 19:16:41;;;;;;;33.53;19.37;;;;;;;13.03;50.72;101154.47;3415083;86;99155;-87
2022/04/30 19:21:42;;;;;;;45.28;20.43;;;;;;;12.85;51.28;101157.56;3441704;85;99451;-86
2022/04/30 19:26:45;;;;;;;34.87;19.17;;;;;;;12.63;51.82;101147.97;3450967;85;99697;-86
2022/04/30 19:31:46;;;;;;;36.77;19.70;;;;;;;12.52;52.22;101145.07;3431625;84;99240;-87
2022/04/30 19:36:47;;;;;;;42.67;23.33;;;;;;;12.39;52.49;101146.47;3429758;86;30379;-87
2022/04/30 19:41:49;;;;;;;42.20;24.67;;;;;;;12.20;53.22;101145.73;3437326;84;99294;-87
2022/04/30 19:46:50;;;;;;;39.60;22.05;;;;;;;12.00;53.77;101149.16;3471129;84;99477;-86
2022/04/30 19:51:51;;;;;;;34.10;19.17;;;;;;;11.92;54.24;101152.98;3496386;84;99177;-87
2022/04/30 19:56:54;;;;;;;37.30;20.97;;;;;;;11.84;54.64;101143.58;3452924;84;98478;-86
2022/04/30 20:01:55;;;;;;;37.48;18.87;;;;;;;11.73;55.16;101140.61;3420719;85;99501;-87
2022/04/30 20:06:57;;;;;;;43.77;23.13;;;;;;;11.59;55.44;101147.27;3417483;85;33420;-86
2022/04/30 20:17:18;;;;;;;52.78;24.30;;;;;;;11.28;56.68;101145.27;3534349;82;99381;-86
2022/04/30 20:22:19;;;;;;;55.13;24.20;;;;;;;11.15;57.28;101143.23;3538724;82;99538;-86
2022/04/30 20:27:20;;;;;;;72.20;36.07;;;;;;;11.06;57.65;101144.63;3552435;83;99379;-86
2022/04/30 20:37:40;;;;;;;35.83;18.98;;;;;;;10.86;56.52;101151.28;3454775;84;99241;-86
2022/04/30 20:42:43;;;;;;;35.17;19.47;;;;;;;10.74;56.72;101163.21;3514280;82;99083;-86
2022/04/30 20:47:43;;;;;;;39.58;18.40;;;;;;;10.61;57.32;101154.05;3530443;83;99308;-86
2022/04/30 20:52:45;;;;;;;37.27;16.97;;;;;;;10.53;57.88;101150.94;3516608;83;99441;-87
2022/04/30 20:57:47;;;;;;;31.97;15.50;;;;;;;10.39;58.22;101148.66;3527755;83;99168;-86
2022/04/30 21:02:49;;;;;;;32.80;15.50;;;;;;;10.26;58.49;101148.53;3536298;83;99210;-86
2022/04/30 21:07:50;;;;;;;26.53;13.87;;;;;;;10.11;58.77;101147.19;3530249;83;99278;-86
2022/04/30 21:12:51;;;;;;;29.07;13.93;;;;;;;10.00;59.41;101141.41;3527881;82;98873;-86
2022/04/30 21:17:52;;;;;;;27.40;13.23;;;;;;;9.85;59.45;101150.45;3509980;83;98851;-86
2022/04/30 21:22:53;;;;;;;27.10;12.60;;;;;;;9.70;59.80;101148.48;3505594;83;98853;-86
2022/04/30 21:27:54;;;;;;;41.30;20.43;;;;;;;9.60;60.57;101146.84;3509535;83;98858;-86
2022/04/30 21:32:55;;;;;;;34.10;19.10;;;;;;;9.50;60.75;101145.42;3507781;83;98754;-86
2022/04/30 21:37:56;;;;;;;32.65;17.17;;;;;;;9.36;61.17;101140.09;3512850;83;98943;-86
2022/04/30 21:42:57;;;;;;;36.87;18.00;;;;;;;9.24;61.55;101147.02;3509870;83;98842;-86
2022/04/30 21:47:59;;;;;;;40.33;18.55;;;;;;;9.10;62.01;101143.31;3514601;83;98721;-86
2022/04/30 21:53:00;;;;;;;44.00;18.10;;;;;;;8.98;62.40;101135.13;3511420;83;98959;-85
2022/04/30 22:03:21;;;;;;;36.85;17.12;;;;;;;8.74;63.07;101143.45;3506591;83;99072;-87
2022/04/30 22:08:23;;;;;;;43.40;17.93;;;;;;;8.62;63.24;101144.83;3506035;83;98810;-86
2022/04/30 22:13:26;;;;;;;39.40;18.17;;;;;;;8.50;63.85;101144.86;3512595;83;98870;-86
2022/04/30 22:18:28;;;;;;;46.18;19.95;;;;;;;8.37;63.66;101142.48;3527563;83;98482;-86
2022/04/30 22:23:29;;;;;;;43.40;17.32;;;;;;;8.26;63.84;101144.09;3498913;83;98936;-86
2022/04/30 22:28:31;;;;;;;47.30;19.02;;;;;;;8.13;64.53;101137.77;3504751;83;98850;-86
2022/04/30 22:33:32;;;;;;;55.17;21.57;;;;;;;8.01;64.89;101139.16;3493444;83;98980;-87
2022/04/30 22:38:33;;;;;;;57.27;24.40;;;;;;;7.92;64.92;101137.67;3515732;83;98880;-86
2022/04/30 22:43:34;;;;;;;55.97;24.83;;;;;;;7.80;65.10;101132.97;3470840;83;98885;-86
2022/04/30 22:48:36;;;;;;;55.97;24.33;;;;;;;7.70;65.49;101130.66;3463017;84;33206;-86
2022/04/30 22:53:37;;;;;;;48.87;23.37;;;;;;;7.60;65.67;101140.72;3454455;85;98857;-86
2022/04/30 22:58:38;;;;;;;48.90;21.13;;;;;;;7.51;66.19;101135.90;3465488;84;98753;-86
2022/04/30 23:03:39;;;;;;;49.57;24.30;;;;;;;7.40;66.20;101137.47;3505473;83;99139;-86
2022/04/30 23:08:40;;;;;;;48.87;21.67;;;;;;;7.32;66.78;101131.50;3526091;83;98875;-86
2022/04/30 23:13:41;;;;;;;48.43;24.30;;;;;;;7.22;66.82;101124.30;3528434;82;99087;-86
2022/04/30 23:18:42;;;;;;;42.73;22.27;;;;;;;7.12;66.75;101129.63;3528459;83;33459;-86
2022/04/30 23:23:43;;;;;;;38.97;19.00;;;;;;;7.03;67.10;101132.22;3513083;83;98679;-86
2022/04/30 23:28:44;;;;;;;36.67;18.30;;;;;;;6.98;67.27;101131.84;3516576;83;98744;-86
2022/04/30 23:33:45;;;;;;;37.07;18.53;;;;;;;6.88;67.31;101129.52;3487613;83;98843;-86
2022/04/30 23:38:46;;;;;;;41.42;20.48;;;;;;;6.82;67.83;101130.07;3528238;82;98893;-86
2022/04/30 23:43:46;;;;;;;37.13;19.87;;;;;;;6.74;67.39;101129.00;3502067;83;98852;-86
2022/04/30 23:48:48;;;;;;;33.00;18.60;;;;;;;6.66;67.92;101133.17;3498593;83;31699;-86
2022/04/30 23:53:49;;;;;;;39.40;16.67;;;;;;;6.58;68.06;101128.00;3520017;83;98967;-86
2022/04/30 23:58:51;;;;;;;32.40;16.73;;;;;;;6.47;68.74;101125.43;3510774;84;98698;-86
